PWSweather.com
Personal Weather Stations
Station Observations

SkegnessGB

Lat: 53.147585, Lon: 0.345774

Elevation: 18

Station Type: Fine Offset WH3080

http://www.skegnessweather.info/

Latest ConditionsUpdated 6:50:00 PM GMT Tuesday, Nov 12, 2019
Currently Today's Max Today's Min Today's Average
Temperature 44.2°F6.8°C 45.0°F7.2°C 38.3°F3.5°C 41.0°F5.0°C
Dew Point 38.5°F3.6°C 40.5°F4.7°C 32.7°F0.4°C 35.7°F2.1°C
Winds 5.0 mph SSW8.0 kmh SSW 16.2 mph -26.1 kmh - - 9.5 mph 15.3 kmh
Wind Gusts 7.6 mph12.2 kmh 18.5 mph29.8 kmh - -
Humidity 80% 87% 75% 81%
Pressure 29.31 in992.6 mb 29.36 in994.2 mb 29.22 in989.5 mb -
Precipitation - 0.05 in1.3 mm - -
Hour Temp Dew Point Humidity Winds Wind Gusts Pressure Precip Precip Rate Daily Precip Total
06:50 PM 44.2°F6.8°C 38.5°F3.6°C 80% 5.0 mph SSW8.0 kmh SSW 7.6 mph12.2 kmh 29.31 in992.6 mb 0.00 in0.0 mm 0.00 in0.0 mm 0.05 in1.3 mm
06:40 PM 44.4°F6.9°C 39.0°F3.9°C 81% 6.3 mph SSW10.1 kmh SSW 8.4 mph13.5 kmh 29.30 in992.2 mb 0.00 in0.0 mm 0.00 in0.0 mm 0.05 in1.3 mm
06:30 PM 44.4°F6.9°C 39.0°F3.9°C 81% 4.6 mph SSE7.4 kmh SSE 7.6 mph12.2 kmh 29.30 in992.2 mb 0.00 in0.0 mm 0.00 in0.0 mm 0.05 in1.3 mm
06:20 PM 44.8°F7.1°C 37.3°F2.9°C 75% 6.2 mph SW10.0 kmh SW 7.6 mph12.2 kmh 29.29 in991.9 mb 0.00 in0.0 mm 0.00 in0.0 mm 0.05 in1.3 mm
06:10 PM 45.0°F7.2°C 37.8°F3.2°C 76% 7.4 mph S11.9 kmh S 10.8 mph17.4 kmh 29.29 in991.9 mb 0.00 in0.0 mm 0.00 in0.0 mm 0.05 in1.3 mm
06:00 PM 44.8°F7.1°C 39.0°F3.9°C 80% 7.8 mph SW12.6 kmh SW 9.1 mph14.6 kmh 29.28 in991.5 mb 0.00 in0.0 mm 0.00 in0.0 mm 0.05 in1.3 mm
05:50 PM 44.4°F6.9°C 40.5°F4.7°C 86% 7.4 mph SW11.9 kmh SW 8.4 mph13.5 kmh 29.28 in991.5 mb 0.00 in0.0 mm 0.00 in0.0 mm 0.05 in1.3 mm
05:40 PM 43.7°F6.5°C 40.1°F4.5°C 87% 7.3 mph SW11.7 kmh SW 11.8 mph19.0 kmh 29.27 in991.2 mb 0.00 in0.0 mm 0.00 in0.0 mm 0.05 in1.3 mm
05:30 PM 43.0°F6.1°C 39.4°F4.1°C 87% 9.1 mph SW14.6 kmh SW 12.5 mph20.1 kmh 29.27 in991.2 mb 0.00 in0.0 mm 0.00 in0.0 mm 0.05 in1.3 mm
05:20 PM 43.0°F6.1°C 39.4°F4.1°C 87% 6.5 mph WSW10.5 kmh WSW 8.4 mph13.5 kmh 29.26 in990.9 mb 0.00 in0.0 mm 0.00 in0.0 mm 0.05 in1.3 mm
05:10 PM 43.3°F6.3°C 39.7°F4.3°C 87% 8.2 mph SW13.2 kmh SW 7.6 mph12.2 kmh 29.26 in990.9 mb 0.00 in0.0 mm 0.00 in0.0 mm 0.05 in1.3 mm
05:00 PM 43.3°F6.3°C 39.7°F4.3°C 87% 7.5 mph S12.1 kmh S 10.1 mph16.3 kmh 29.26 in990.9 mb 0.00 in0.0 mm 0.00 in0.0 mm 0.05 in1.3 mm
04:50 PM 43.2°F6.2°C 39.6°F4.2°C 87% 7.8 mph SW12.6 kmh SW 8.4 mph13.5 kmh 29.25 in990.5 mb 0.00 in0.0 mm 0.00 in0.0 mm 0.05 in1.3 mm
04:40 PM 43.2°F6.2°C 39.6°F4.2°C 87% 8.1 mph SW13.0 kmh SW 10.1 mph16.3 kmh 29.25 in990.5 mb 0.00 in0.0 mm 0.00 in0.0 mm 0.05 in1.3 mm
04:30 PM 43.3°F6.3°C 39.7°F4.3°C 87% 8.5 mph S13.7 kmh S 10.1 mph16.3 kmh 29.25 in990.5 mb 0.00 in0.0 mm 0.00 in0.0 mm 0.05 in1.3 mm
04:20 PM 43.3°F6.3°C 39.7°F4.3°C 87% 7.8 mph SSW12.6 kmh SSW 8.4 mph13.5 kmh 29.25 in990.5 mb 0.00 in0.0 mm 0.00 in0.0 mm 0.05 in1.3 mm
04:10 PM 43.3°F6.3°C 39.7°F4.3°C 87% 9.8 mph WSW15.8 kmh WSW 11.8 mph19.0 kmh 29.25 in990.5 mb 0.00 in0.0 mm 0.00 in0.0 mm 0.05 in1.3 mm
04:00 PM 43.2°F6.2°C 39.6°F4.2°C 87% 9.5 mph WSW15.3 kmh WSW 10.1 mph16.3 kmh 29.24 in990.2 mb 0.00 in0.0 mm 0.00 in0.0 mm 0.05 in1.3 mm
03:50 PM 43.3°F6.3°C 39.4°F4.1°C 86% 7.9 mph S12.7 kmh S 10.1 mph16.3 kmh 29.24 in990.2 mb 0.00 in0.0 mm 0.00 in0.0 mm 0.05 in1.3 mm
03:40 PM 43.2°F6.2°C 39.0°F3.9°C 85% 6.8 mph SW10.9 kmh SW 8.4 mph13.5 kmh 29.24 in990.2 mb 0.01 in0.3 mm 0.00 in0.0 mm 0.05 in1.3 mm
03:30 PM 43.0°F6.1°C 38.8°F3.8°C 85% 6.7 mph SW10.8 kmh SW 7.6 mph12.2 kmh 29.24 in990.2 mb 0.01 in0.3 mm 0.00 in0.0 mm 0.05 in1.3 mm
03:20 PM 43.0°F6.1°C 38.5°F3.6°C 84% 8.2 mph SW13.2 kmh SW 9.1 mph14.6 kmh 29.24 in990.2 mb 0.01 in0.3 mm 0.00 in0.0 mm 0.05 in1.3 mm
03:10 PM 43.3°F6.3°C 38.8°F3.8°C 84% 6.7 mph WNW10.8 kmh WNW 8.4 mph13.5 kmh 29.24 in990.2 mb 0.01 in0.3 mm 0.00 in0.0 mm 0.05 in1.3 mm
03:00 PM 43.7°F6.5°C 39.2°F4.0°C 84% 8.6 mph NE13.8 kmh NE 10.8 mph17.4 kmh 29.24 in990.2 mb 0.01 in0.3 mm 0.00 in0.0 mm 0.05 in1.3 mm
02:50 PM 44.1°F6.7°C 39.5°F4.2°C 84% 10.8 mph WSW17.4 kmh WSW 15.0 mph24.1 kmh 29.24 in990.2 mb 0.01 in0.3 mm 0.06 in1.5 mm 0.05 in1.3 mm
02:40 PM 44.2°F6.8°C 39.4°F4.1°C 83% 9.0 mph SSW14.5 kmh SSW 10.8 mph17.4 kmh 29.23 in989.8 mb 0.00 in0.0 mm 0.00 in0.0 mm 0.04 in1.0 mm
02:30 PM 44.4°F6.9°C 39.6°F4.2°C 83% 8.8 mph WSW14.2 kmh WSW 12.5 mph20.1 kmh 29.23 in989.8 mb 0.00 in0.0 mm 0.00 in0.0 mm 0.04 in1.0 mm
02:20 PM 44.4°F6.9°C 39.6°F4.2°C 83% 9.5 mph SW15.3 kmh SW 10.1 mph16.3 kmh 29.23 in989.8 mb 0.00 in0.0 mm 0.00 in0.0 mm 0.04 in1.0 mm
02:10 PM 44.6°F7.0°C 37.8°F3.2°C 77% 8.0 mph S12.9 kmh S 8.4 mph13.5 kmh 29.23 in989.8 mb 0.00 in0.0 mm 0.00 in0.0 mm 0.04 in1.0 mm
02:00 PM 44.6°F7.0°C 37.8°F3.2°C 77% 8.3 mph SSW13.4 kmh SSW 8.4 mph13.5 kmh 29.23 in989.8 mb 0.00 in0.0 mm 0.00 in0.0 mm 0.04 in1.0 mm
01:50 PM 44.6°F7.0°C 37.8°F3.2°C 77% 8.1 mph SW13.0 kmh SW 10.8 mph17.4 kmh 29.22 in989.5 mb 0.00 in0.0 mm 0.00 in0.0 mm 0.04 in1.0 mm
01:40 PM 44.6°F7.0°C 37.8°F3.2°C 77% 8.5 mph SSW13.7 kmh SSW 9.1 mph14.6 kmh 29.22 in989.5 mb 0.00 in0.0 mm 0.00 in0.0 mm 0.04 in1.0 mm
01:30 PM 44.8°F7.1°C 38.0°F3.3°C 77% 8.7 mph WSW14.0 kmh WSW 12.5 mph20.1 kmh 29.22 in989.5 mb 0.00 in0.0 mm 0.00 in0.0 mm 0.04 in1.0 mm
01:20 PM 44.8°F7.1°C 38.3°F3.5°C 78% 7.6 mph SSW12.2 kmh SSW 10.8 mph17.4 kmh 29.22 in989.5 mb 0.00 in0.0 mm 0.00 in0.0 mm 0.04 in1.0 mm
01:10 PM 44.6°F7.0°C 38.2°F3.4°C 78% 8.1 mph SSW13.0 kmh SSW 10.1 mph16.3 kmh 29.22 in989.5 mb 0.00 in0.0 mm 0.00 in0.0 mm 0.04 in1.0 mm
01:00 PM 44.2°F6.8°C 39.4°F4.1°C 83% 10.3 mph S16.6 kmh S 13.3 mph21.4 kmh 29.22 in989.5 mb 0.00 in0.0 mm 0.00 in0.0 mm 0.04 in1.0 mm
12:50 PM 44.2°F6.8°C 39.7°F4.3°C 84% 10.6 mph SSW17.1 kmh SSW 12.5 mph20.1 kmh 29.22 in989.5 mb 0.00 in0.0 mm 0.00 in0.0 mm 0.04 in1.0 mm
12:40 PM 43.5°F6.4°C 39.0°F3.9°C 84% 11.0 mph SW17.7 kmh SW 13.3 mph21.4 kmh 29.22 in989.5 mb 0.00 in0.0 mm 0.00 in0.0 mm 0.04 in1.0 mm
12:30 PM 43.2°F6.2°C 38.3°F3.5°C 83% 9.1 mph S14.6 kmh S 16.0 mph25.7 kmh 29.22 in989.5 mb 0.00 in0.0 mm 0.00 in0.0 mm 0.04 in1.0 mm
12:20 PM 42.8°F6.0°C 38.0°F3.3°C 83% 10.1 mph SW16.3 kmh SW 16.0 mph25.7 kmh 29.22 in989.5 mb 0.00 in0.0 mm 0.00 in0.0 mm 0.04 in1.0 mm
12:10 PM 42.3°F5.7°C 37.5°F3.1°C 83% 10.4 mph SW16.7 kmh SW 11.8 mph19.0 kmh 29.22 in989.5 mb 0.00 in0.0 mm 0.00 in0.0 mm 0.04 in1.0 mm
12:00 PM 42.1°F5.6°C 37.3°F2.9°C 83% 10.9 mph SW17.5 kmh SW 11.8 mph19.0 kmh 29.23 in989.8 mb 0.00 in0.0 mm 0.00 in0.0 mm 0.04 in1.0 mm
11:50 AM 41.7°F5.4°C 36.9°F2.7°C 83% 12.5 mph SE20.1 kmh SE 15.0 mph24.1 kmh 29.22 in989.5 mb 0.00 in0.0 mm 0.00 in0.0 mm 0.04 in1.0 mm
11:40 AM 41.5°F5.3°C 36.8°F2.7°C 83% 10.1 mph S16.3 kmh S 12.5 mph20.1 kmh 29.23 in989.8 mb 0.00 in0.0 mm 0.00 in0.0 mm 0.04 in1.0 mm
11:30 AM 41.2°F5.1°C 36.4°F2.4°C 83% 12.5 mph S20.1 kmh S 13.3 mph21.4 kmh 29.23 in989.8 mb 0.01 in0.3 mm 0.00 in0.0 mm 0.04 in1.0 mm
11:20 AM 41.0°F5.0°C 36.2°F2.3°C 83% 13.9 mph WSW22.4 kmh WSW 15.0 mph24.1 kmh 29.22 in989.5 mb 0.02 in0.5 mm 0.00 in0.0 mm 0.04 in1.0 mm
11:10 AM 40.8°F4.9°C 36.1°F2.3°C 83% 14.0 mph NW22.5 kmh NW 12.5 mph20.1 kmh 29.22 in989.5 mb 0.02 in0.5 mm 0.00 in0.0 mm 0.04 in1.0 mm
11:00 AM 40.5°F4.7°C 35.4°F1.9°C 82% 10.2 mph SW16.4 kmh SW 13.3 mph21.4 kmh 29.23 in989.8 mb 0.04 in1.0 mm 0.00 in0.0 mm 0.04 in1.0 mm
10:50 AM 40.5°F4.7°C 35.4°F1.9°C 82% 10.1 mph SSW16.3 kmh SSW 11.8 mph19.0 kmh 29.23 in989.8 mb 0.04 in1.0 mm 0.00 in0.0 mm 0.04 in1.0 mm
10:40 AM 40.3°F4.6°C 34.9°F1.6°C 81% 11.6 mph S18.7 kmh S 12.5 mph20.1 kmh 29.23 in989.8 mb 0.04 in1.0 mm 0.12 in3.0 mm 0.04 in1.0 mm
10:30 AM 40.5°F4.7°C 35.1°F1.7°C 81% 14.1 mph SSW22.7 kmh SSW 14.3 mph23.0 kmh 29.24 in990.2 mb 0.02 in0.5 mm 0.06 in1.5 mm 0.02 in0.5 mm
10:20 AM 40.6°F4.8°C 35.0°F1.7°C 80% 12.7 mph S20.4 kmh S 17.5 mph28.2 kmh 29.23 in989.8 mb 0.01 in0.3 mm 0.00 in0.0 mm 0.01 in0.3 mm
10:10 AM 41.0°F5.0°C 35.0°F1.7°C 79% 16.2 mph SSW26.1 kmh SSW 18.5 mph29.8 kmh 29.24 in990.2 mb 0.01 in0.3 mm 0.06 in1.5 mm 0.01 in0.3 mm
10:00 AM 41.4°F5.2°C 35.3°F1.8°C 79% 11.1 mph SSW17.9 kmh SSW 15.0 mph24.1 kmh 29.24 in990.2 mb 0.00 in0.0 mm 0.00 in0.0 mm 0.00 in0.0 mm
09:50 AM 41.4°F5.2°C 35.3°F1.8°C 79% 9.8 mph WSW15.8 kmh WSW 11.8 mph19.0 kmh 29.24 in990.2 mb 0.00 in0.0 mm 0.00 in0.0 mm 0.00 in0.0 mm
09:40 AM 41.0°F5.0°C 35.0°F1.7°C 79% 10.0 mph SSE16.1 kmh SSE 15.0 mph24.1 kmh 29.24 in990.2 mb 0.00 in0.0 mm 0.00 in0.0 mm 0.00 in0.0 mm
09:30 AM 40.6°F4.8°C 34.6°F1.4°C 79% 11.2 mph S18.0 kmh S 16.0 mph25.7 kmh 29.24 in990.2 mb 0.00 in0.0 mm 0.00 in0.0 mm 0.00 in0.0 mm
09:20 AM 40.6°F4.8°C 34.6°F1.4°C 79% 11.1 mph SSW17.9 kmh SSW 10.8 mph17.4 kmh 29.25 in990.5 mb 0.00 in0.0 mm 0.00 in0.0 mm 0.00 in0.0 mm
09:10 AM 40.3°F4.6°C 34.6°F1.4°C 80% 9.7 mph S15.6 kmh S 12.5 mph20.1 kmh 29.25 in990.5 mb 0.00 in0.0 mm 0.00 in0.0 mm 0.00 in0.0 mm
09:00 AM 40.1°F4.5°C 34.1°F1.2°C 79% 10.9 mph SSW17.5 kmh SSW 15.0 mph24.1 kmh 29.25 in990.5 mb 0.00 in0.0 mm 0.00 in0.0 mm 0.00 in0.0 mm
08:50 AM 40.1°F4.5°C 34.1°F1.2°C 79% 11.8 mph SSW19.0 kmh SSW 14.3 mph23.0 kmh 29.25 in990.5 mb 0.00 in0.0 mm 0.00 in0.0 mm 0.00 in0.0 mm
08:40 AM 39.7°F4.3°C 33.8°F1.0°C 79% 10.8 mph SW17.4 kmh SW 14.3 mph23.0 kmh 29.26 in990.9 mb 0.00 in0.0 mm 0.00 in0.0 mm 0.00 in0.0 mm
08:30 AM 39.7°F4.3°C 33.4°F0.8°C 78% 10.3 mph WSW16.6 kmh WSW 11.8 mph19.0 kmh 29.27 in991.2 mb 0.00 in0.0 mm 0.00 in0.0 mm 0.00 in0.0 mm
08:20 AM 39.9°F4.4°C 33.6°F0.9°C 78% 11.0 mph SW17.7 kmh SW 12.5 mph20.1 kmh 29.27 in991.2 mb 0.00 in0.0 mm 0.00 in0.0 mm 0.00 in0.0 mm
08:10 AM 39.7°F4.3°C 33.8°F1.0°C 79% 10.0 mph NW16.1 kmh NW 10.1 mph16.3 kmh 29.27 in991.2 mb 0.00 in0.0 mm 0.00 in0.0 mm 0.00 in0.0 mm
08:00 AM 39.2°F4.0°C 33.5°F0.8°C 80% 10.5 mph SW16.9 kmh SW 11.8 mph19.0 kmh 29.27 in991.2 mb 0.00 in0.0 mm 0.00 in0.0 mm 0.00 in0.0 mm
07:50 AM 39.0°F3.9°C 33.1°F0.6°C 79% 11.2 mph SSE18.0 kmh SSE 10.8 mph17.4 kmh 29.27 in991.2 mb 0.00 in0.0 mm 0.00 in0.0 mm 0.00 in0.0 mm
07:40 AM 38.8°F3.8°C 32.9°F0.5°C 79% 10.7 mph S17.2 kmh S 12.5 mph20.1 kmh 29.27 in991.2 mb 0.00 in0.0 mm 0.00 in0.0 mm 0.00 in0.0 mm
07:30 AM 38.8°F3.8°C 33.2°F0.7°C 80% 11.6 mph S18.7 kmh S 12.5 mph20.1 kmh 29.27 in991.2 mb 0.00 in0.0 mm 0.00 in0.0 mm 0.00 in0.0 mm
07:20 AM 39.0°F3.9°C 33.4°F0.8°C 80% 10.9 mph S17.5 kmh S 10.8 mph17.4 kmh 29.27 in991.2 mb 0.00 in0.0 mm 0.00 in0.0 mm 0.00 in0.0 mm
07:10 AM 38.8°F3.8°C 33.2°F0.7°C 80% 13.5 mph E21.7 kmh E 14.3 mph23.0 kmh 29.27 in991.2 mb 0.00 in0.0 mm 0.00 in0.0 mm 0.00 in0.0 mm
07:00 AM 38.8°F3.8°C 33.2°F0.7°C 80% 11.0 mph SSE17.7 kmh SSE 14.3 mph23.0 kmh 29.28 in991.5 mb 0.00 in0.0 mm 0.00 in0.0 mm 0.00 in0.0 mm
06:50 AM 38.7°F3.7°C 33.0°F0.6°C 80% 10.0 mph SSW16.1 kmh SSW 13.3 mph21.4 kmh 29.28 in991.5 mb 0.00 in0.0 mm 0.00 in0.0 mm 0.00 in0.0 mm
06:40 AM 38.7°F3.7°C 33.0°F0.6°C 80% 11.3 mph S18.2 kmh S 11.8 mph19.0 kmh 29.27 in991.2 mb 0.00 in0.0 mm 0.00 in0.0 mm 0.00 in0.0 mm
06:30 AM 38.5°F3.6°C 32.8°F0.4°C 80% 11.2 mph WSW18.0 kmh WSW 12.5 mph20.1 kmh 29.28 in991.5 mb 0.00 in0.0 mm 0.00 in0.0 mm 0.00 in0.0 mm
06:20 AM 38.3°F3.5°C 32.7°F0.4°C 80% 10.2 mph SW16.4 kmh SW 14.3 mph23.0 kmh 29.29 in991.9 mb 0.00 in0.0 mm 0.00 in0.0 mm 0.00 in0.0 mm
06:10 AM 38.3°F3.5°C 33.0°F0.6°C 81% 9.5 mph SSE15.3 kmh SSE 11.8 mph19.0 kmh 29.29 in991.9 mb 0.00 in0.0 mm 0.00 in0.0 mm 0.00 in0.0 mm
06:00 AM 38.3°F3.5°C 33.0°F0.6°C 81% 10.2 mph SSE16.4 kmh SSE 10.1 mph16.3 kmh 29.29 in991.9 mb 0.00 in0.0 mm 0.00 in0.0 mm 0.00 in0.0 mm
05:50 AM 38.3°F3.5°C 33.0°F0.6°C 81% 9.7 mph SE15.6 kmh SE 11.8 mph19.0 kmh 29.29 in991.9 mb 0.00 in0.0 mm 0.00 in0.0 mm 0.00 in0.0 mm
05:40 AM 38.3°F3.5°C 33.0°F0.6°C 81% 10.0 mph SE16.1 kmh SE 11.8 mph19.0 kmh 29.30 in992.2 mb 0.00 in0.0 mm 0.00 in0.0 mm 0.00 in0.0 mm
05:30 AM 38.3°F3.5°C 33.0°F0.6°C 81% 10.6 mph S17.1 kmh S 10.8 mph17.4 kmh 29.30 in992.2 mb 0.00 in0.0 mm 0.00 in0.0 mm 0.00 in0.0 mm
05:20 AM 38.3°F3.5°C 33.0°F0.6°C 81% 10.1 mph S16.3 kmh S 11.8 mph19.0 kmh 29.30 in992.2 mb 0.00 in0.0 mm 0.00 in0.0 mm 0.00 in0.0 mm
05:10 AM 38.5°F3.6°C 33.2°F0.7°C 81% 11.4 mph SSW18.3 kmh SSW 11.8 mph19.0 kmh 29.30 in992.2 mb 0.00 in0.0 mm 0.00 in0.0 mm 0.00 in0.0 mm
05:00 AM 38.5°F3.6°C 33.2°F0.7°C 81% 10.4 mph SW16.7 kmh SW 10.8 mph17.4 kmh 29.31 in992.6 mb 0.00 in0.0 mm 0.00 in0.0 mm 0.00 in0.0 mm
04:50 AM 38.7°F3.7°C 33.3°F0.7°C 81% 10.3 mph S16.6 kmh S 10.8 mph17.4 kmh 29.31 in992.6 mb 0.00 in0.0 mm 0.00 in0.0 mm 0.00 in0.0 mm
04:40 AM 38.7°F3.7°C 33.3°F0.7°C 81% 8.9 mph S14.3 kmh S 10.1 mph16.3 kmh 29.32 in992.9 mb 0.00 in0.0 mm 0.00 in0.0 mm 0.00 in0.0 mm
04:30 AM 38.5°F3.6°C 33.2°F0.7°C 81% 8.9 mph S14.3 kmh S 10.8 mph17.4 kmh 29.32 in992.9 mb 0.00 in0.0 mm 0.00 in0.0 mm 0.00 in0.0 mm
04:20 AM 38.5°F3.6°C 33.2°F0.7°C 81% 9.6 mph SW15.4 kmh SW 14.3 mph23.0 kmh 29.32 in992.9 mb 0.00 in0.0 mm 0.00 in0.0 mm 0.00 in0.0 mm
04:10 AM 38.3°F3.5°C 33.0°F0.6°C 81% 8.5 mph SSW13.7 kmh SSW 10.8 mph17.4 kmh 29.32 in992.9 mb 0.00 in0.0 mm 0.00 in0.0 mm 0.00 in0.0 mm
04:00 AM 38.3°F3.5°C 33.0°F0.6°C 81% 9.2 mph SW14.8 kmh SW 10.8 mph17.4 kmh 29.32 in992.9 mb 0.00 in0.0 mm 0.00 in0.0 mm 0.00 in0.0 mm
03:50 AM 38.5°F3.6°C 33.2°F0.7°C 81% 9.2 mph S14.8 kmh S 10.1 mph16.3 kmh 29.33 in993.2 mb 0.00 in0.0 mm 0.00 in0.0 mm 0.00 in0.0 mm
03:30 AM 38.5°F3.6°C 33.2°F0.7°C 81% 8.1 mph S13.0 kmh S 9.1 mph14.6 kmh 29.33 in993.2 mb 0.00 in0.0 mm 0.00 in0.0 mm 0.00 in0.0 mm
03:20 AM 38.5°F3.6°C 33.2°F0.7°C 81% 8.7 mph SW14.0 kmh SW 11.8 mph19.0 kmh 29.33 in993.2 mb 0.00 in0.0 mm 0.00 in0.0 mm 0.00 in0.0 mm
03:10 AM 38.7°F3.7°C 33.3°F0.7°C 81% 8.0 mph SSW12.9 kmh SSW 8.4 mph13.5 kmh 29.34 in993.6 mb 0.00 in0.0 mm 0.00 in0.0 mm 0.00 in0.0 mm
03:00 AM 38.7°F3.7°C 33.3°F0.7°C 81% 8.0 mph SW12.9 kmh SW 10.8 mph17.4 kmh 29.34 in993.6 mb 0.00 in0.0 mm 0.00 in0.0 mm 0.00 in0.0 mm
02:50 AM 38.8°F3.8°C 33.5°F0.8°C 81% 8.7 mph SSW14.0 kmh SSW 10.1 mph16.3 kmh 29.34 in993.6 mb 0.00 in0.0 mm 0.00 in0.0 mm 0.00 in0.0 mm
02:40 AM 38.8°F3.8°C 33.5°F0.8°C 81% 9.8 mph SW15.8 kmh SW 13.3 mph21.4 kmh 29.34 in993.6 mb 0.00 in0.0 mm 0.00 in0.0 mm 0.00 in0.0 mm
02:30 AM 38.8°F3.8°C 33.5°F0.8°C 81% 8.0 mph SW12.9 kmh SW 9.1 mph14.6 kmh 29.35 in993.9 mb 0.00 in0.0 mm 0.00 in0.0 mm 0.00 in0.0 mm
02:20 AM 38.7°F3.7°C 33.3°F0.7°C 81% 7.6 mph SE12.2 kmh SE 10.8 mph17.4 kmh 29.35 in993.9 mb 0.00 in0.0 mm 0.00 in0.0 mm 0.00 in0.0 mm
02:10 AM 38.7°F3.7°C 33.3°F0.7°C 81% 6.9 mph SSW11.1 kmh SSW 9.1 mph14.6 kmh 29.35 in993.9 mb 0.00 in0.0 mm 0.00 in0.0 mm 0.00 in0.0 mm
02:00 AM 38.7°F3.7°C 33.3°F0.7°C 81% 7.6 mph SW12.2 kmh SW 13.3 mph21.4 kmh 29.36 in994.2 mb 0.00 in0.0 mm 0.00 in0.0 mm 0.00 in0.0 mm
01:50 AM 38.8°F3.8°C 33.2°F0.7°C 80% 8.1 mph S13.0 kmh S 9.1 mph14.6 kmh 29.36 in994.2 mb 0.00 in0.0 mm 0.00 in0.0 mm 0.00 in0.0 mm
01:40 AM 38.8°F3.8°C 33.2°F0.7°C 80% 8.3 mph SSW13.4 kmh SSW 10.8 mph17.4 kmh 29.36 in994.2 mb 0.00 in0.0 mm 0.00 in0.0 mm 0.00 in0.0 mm
01:30 AM 39.0°F3.9°C 33.4°F0.8°C 80% 8.6 mph SW13.8 kmh SW 12.5 mph20.1 kmh 29.36 in994.2 mb 0.00 in0.0 mm 0.00 in0.0 mm 0.00 in0.0 mm
01:20 AM 39.2°F4.0°C 33.5°F0.8°C 80% 8.7 mph S14.0 kmh S 12.5 mph20.1 kmh 29.35 in993.9 mb 0.00 in0.0 mm 0.00 in0.0 mm 0.00 in0.0 mm
01:10 AM 39.4°F4.1°C 33.7°F0.9°C 80% 8.9 mph SW14.3 kmh SW 7.6 mph12.2 kmh 29.35 in993.9 mb 0.00 in0.0 mm 0.00 in0.0 mm 0.00 in0.0 mm
01:00 AM 39.6°F4.2°C 33.9°F1.1°C 80% 10.7 mph SSW17.2 kmh SSW 14.3 mph23.0 kmh 29.35 in993.9 mb 0.00 in0.0 mm 0.00 in0.0 mm 0.00 in0.0 mm
12:50 AM 39.6°F4.2°C 33.9°F1.1°C 80% 10.5 mph SW16.9 kmh SW 14.3 mph23.0 kmh 29.36 in994.2 mb 0.00 in0.0 mm 0.00 in0.0 mm 0.00 in0.0 mm
12:40 AM 39.7°F4.3°C 34.1°F1.2°C 80% 9.6 mph SW15.4 kmh SW 11.8 mph19.0 kmh 29.36 in994.2 mb 0.00 in0.0 mm 0.00 in0.0 mm 0.00 in0.0 mm
12:30 AM 39.9°F4.4°C 34.2°F1.2°C 80% 9.6 mph SW15.4 kmh SW 10.1 mph16.3 kmh 29.36 in994.2 mb 0.00 in0.0 mm 0.00 in0.0 mm 0.00 in0.0 mm
12:20 AM 39.9°F4.4°C 34.2°F1.2°C 80% 9.7 mph W15.6 kmh W 10.8 mph17.4 kmh 29.35 in993.9 mb 0.00 in0.0 mm 0.00 in0.0 mm 0.00 in0.0 mm
12:10 AM 39.9°F4.4°C 34.2°F1.2°C 80% 9.9 mph SW15.9 kmh SW 10.1 mph16.3 kmh 29.36 in994.2 mb 0.00 in0.0 mm 0.00 in0.0 mm 0.00 in0.0 mm
12:00 AM 40.1°F4.5°C 34.4°F1.3°C 80% 10.3 mph SW16.6 kmh SW 11.8 mph19.0 kmh 29.35 in993.9 mb 0.00 in0.0 mm 0.00 in0.0 mm 0.00 in0.0 mm